createdAt,value
2019-03-24T00:02:22.928Z,43.73
2019-03-24T00:04:48.976Z,50.88
2019-03-24T00:07:15.071Z,51.92
2019-03-24T00:09:41.157Z,50.73
2019-03-24T00:12:07.233Z,54.25
2019-03-24T00:14:33.335Z,52.50
2019-03-24T00:16:59.408Z,51.73
2019-03-24T00:19:25.462Z,46.85
2019-03-24T00:21:51.526Z,47.35
2019-03-24T00:24:17.596Z,49.48
2019-03-24T00:26:43.696Z,47.05
2019-03-24T00:29:09.792Z,44.63
2019-03-24T00:31:35.878Z,48.20
2019-03-24T00:34:01.933Z,53.90
2019-03-24T00:36:28.034Z,47.65
2019-03-24T00:38:54.095Z,47.90
2019-03-24T00:41:20.176Z,51.02
2019-03-24T00:43:46.261Z,47.23
2019-03-24T00:46:12.356Z,46.50
2019-03-24T00:48:38.416Z,50.33
2019-03-24T00:51:04.533Z,48.58
2019-03-24T00:53:30.707Z,49.03
2019-03-24T00:55:56.789Z,49.58
2019-03-24T00:58:23.808Z,48.02
2019-03-24T01:00:50.277Z,47.60
2019-03-24T01:03:16.428Z,50.10
2019-03-24T01:05:42.620Z,46.08
2019-03-24T01:08:08.781Z,54.35
2019-03-24T01:10:34.863Z,43.65
2019-03-24T01:13:00.920Z,46.63
2019-03-24T01:15:26.998Z,53.05
2019-03-24T01:17:53.079Z,46.05
2019-03-24T01:20:19.228Z,48.42
2019-03-24T01:22:45.403Z,48.60
2019-03-24T01:25:11.671Z,52.73
2019-03-24T01:27:37.765Z,43.13
2019-03-24T01:30:05.735Z,49.67
2019-03-24T01:32:31.795Z,45.08
2019-03-24T01:34:57.880Z,46.68
2019-03-24T01:37:23.951Z,43.08
2019-03-24T01:39:50.211Z,39.95
2019-03-24T01:42:16.301Z,38.35
2019-03-24T01:44:42.387Z,43.38
2019-03-24T01:47:08.460Z,43.83
2019-03-24T01:49:34.545Z,41.83
2019-03-24T01:52:00.599Z,42.50
2019-03-24T01:54:26.671Z,45.17
2019-03-24T01:56:52.795Z,49.98
2019-03-24T01:59:18.865Z,50.40
2019-03-24T02:01:44.961Z,53.25
2019-03-24T02:04:11.012Z,46.30
2019-03-24T02:06:38.677Z,55.45
2019-03-24T02:09:06.596Z,46.30
2019-03-24T02:11:32.643Z,45.48
2019-03-24T02:13:58.729Z,51.68
2019-03-24T02:16:24.791Z,54.20
2019-03-24T02:18:50.879Z,62.35
2019-03-24T02:21:17.041Z,67.78
2019-03-24T02:23:43.124Z,53.45
2019-03-24T02:26:09.198Z,46.40
2019-03-24T02:28:35.303Z,49.15
2019-03-24T02:31:01.391Z,45.17
2019-03-24T02:33:27.469Z,42.48
2019-03-24T02:35:53.513Z,41.55
2019-03-24T02:38:19.607Z,46.80
2019-03-24T02:40:45.705Z,51.40
2019-03-24T02:43:11.888Z,41.70
2019-03-24T02:45:37.957Z,49.77
2019-03-24T02:48:04.148Z,45.63
2019-03-24T02:50:30.208Z,43.38
2019-03-24T02:52:56.285Z,42.35
2019-03-24T02:55:22.372Z,48.13
2019-03-24T02:57:48.444Z,52.67
2019-03-24T03:00:15.026Z,43.90
2019-03-24T03:02:41.107Z,49.10
2019-03-24T03:05:08.009Z,46.20
2019-03-24T03:07:34.162Z,48.85
2019-03-24T03:10:00.493Z,47.70
2019-03-24T03:12:26.712Z,45.85
2019-03-24T03:14:52.896Z,42.78
2019-03-24T03:17:18.972Z,44.03
2019-03-24T03:19:45.046Z,47.13
2019-03-24T03:22:11.114Z,47.33
2019-03-24T03:24:37.290Z,43.63
2019-03-24T03:27:03.503Z,50.17
2019-03-24T03:29:29.620Z,48.63
2019-03-24T03:31:55.717Z,49.50
2019-03-24T03:34:21.782Z,48.30
2019-03-24T03:36:47.866Z,46.80
2019-03-24T03:39:14.071Z,47.33
2019-03-24T03:41:40.234Z,50.58
2019-03-24T03:44:06.408Z,44.38
2019-03-24T03:46:32.478Z,48.85
2019-03-24T03:48:58.652Z,45.10
2019-03-24T03:51:24.737Z,44.25
2019-03-24T03:53:50.800Z,51.42
2019-03-24T03:56:16.856Z,50.00
2019-03-24T03:58:43.002Z,50.80
2019-03-24T04:01:09.067Z,44.20
2019-03-24T04:03:35.137Z,49.05
2019-03-24T04:06:01.300Z,47.05
2019-03-24T04:08:27.392Z,44.53
2019-03-24T04:10:53.465Z,40.28
2019-03-24T04:13:19.564Z,44.77
2019-03-24T04:15:46.053Z,44.33
2019-03-24T04:18:12.140Z,48.50
2019-03-24T04:20:38.220Z,43.73
2019-03-24T04:23:04.402Z,44.25
2019-03-24T04:25:30.477Z,47.58
2019-03-24T04:27:56.535Z,46.85
2019-03-24T04:30:22.740Z,42.73
2019-03-24T04:32:48.804Z,49.25
2019-03-24T04:35:14.895Z,51.13
2019-03-24T04:37:41.012Z,55.52
2019-03-24T04:40:07.377Z,49.15
2019-03-24T04:42:33.490Z,49.50
2019-03-24T04:44:59.684Z,48.52
2019-03-24T04:47:25.747Z,55.05
2019-03-24T04:49:51.830Z,55.78
2019-03-24T04:52:17.912Z,64.55
2019-03-24T04:54:44.054Z,61.23
2019-03-24T04:57:10.174Z,53.50
2019-03-24T04:59:36.331Z,56.90
2019-03-24T05:02:02.509Z,59.83
2019-03-24T05:04:28.596Z,58.92
2019-03-24T05:06:55.134Z,60.08
2019-03-24T05:09:21.928Z,69.47
2019-03-24T05:11:47.991Z,58.40
2019-03-24T05:14:14.055Z,41.63
2019-03-24T05:16:40.131Z,51.48
2019-03-24T05:19:06.176Z,45.73
2019-03-24T05:21:32.257Z,34.63
2019-03-24T05:23:58.357Z,45.45
2019-03-24T05:26:24.635Z,43.60
2019-03-24T05:28:50.720Z,38.98
2019-03-24T05:31:16.799Z,40.33
2019-03-24T05:33:42.883Z,44.15
2019-03-24T05:36:08.944Z,39.65
2019-03-24T05:38:35.017Z,47.48
2019-03-24T05:41:01.098Z,37.58
2019-03-24T05:43:27.159Z,43.70
2019-03-24T05:45:53.259Z,39.67
2019-03-24T05:48:19.461Z,35.92
2019-03-24T05:50:45.567Z,32.08
2019-03-24T05:53:11.643Z,33.92
2019-03-24T05:55:37.722Z,28.47
2019-03-24T05:58:03.818Z,31.62
2019-03-24T06:00:29.892Z,35.92
2019-03-24T06:02:57.345Z,37.20
2019-03-24T06:05:23.669Z,42.90
2019-03-24T06:07:49.765Z,41.15
2019-03-24T06:10:16.043Z,34.73
2019-03-24T06:12:42.136Z,38.53
2019-03-24T06:15:09.105Z,36.28
2019-03-24T06:17:35.245Z,38.55
2019-03-24T06:20:02.032Z,37.95
2019-03-24T06:22:28.220Z,46.65
2019-03-24T06:24:54.383Z,42.62
2019-03-24T06:27:20.477Z,46.37
2019-03-24T06:29:46.538Z,39.15
2019-03-24T06:32:12.599Z,43.05
2019-03-24T06:34:38.666Z,38.15
2019-03-24T06:37:04.721Z,36.70
2019-03-24T06:39:30.817Z,32.50
2019-03-24T06:41:56.882Z,33.88
2019-03-24T06:44:22.987Z,29.90
2019-03-24T06:46:49.057Z,33.15
2019-03-24T06:49:16.151Z,41.90
2019-03-24T06:51:42.227Z,44.42
2019-03-24T06:54:08.297Z,43.10
2019-03-24T06:56:34.363Z,38.42
2019-03-24T06:59:00.464Z,44.03
2019-03-24T07:01:26.620Z,55.30
2019-03-24T07:03:52.760Z,75.10
2019-03-24T07:06:18.877Z,66.22
2019-03-24T07:08:44.984Z,58.42
2019-03-24T07:11:13.876Z,50.83
2019-03-24T07:13:40.026Z,54.70
2019-03-24T07:16:06.108Z,68.42
2019-03-24T07:18:32.211Z,57.13
2019-03-24T07:20:58.280Z,53.50
2019-03-24T07:23:24.345Z,77.70
2019-03-24T07:25:50.425Z,49.67
2019-03-24T07:28:16.520Z,64.47
2019-03-24T07:30:42.599Z,57.95
2019-03-24T07:33:08.680Z,60.75
2019-03-24T07:35:34.784Z,54.38
2019-03-24T07:38:00.851Z,61.68
2019-03-24T07:40:26.928Z,59.70
2019-03-24T07:42:53.028Z,63.92
2019-03-24T07:45:19.126Z,60.67
2019-03-24T07:47:45.233Z,65.37
2019-03-24T07:50:11.612Z,57.38
2019-03-24T07:52:37.695Z,67.75
2019-03-24T07:55:05.491Z,61.55
2019-03-24T07:57:31.559Z,68.80
2019-03-24T07:59:57.696Z,104.72
2019-03-24T08:02:23.772Z,83.90
2019-03-24T08:04:49.889Z,133.07
2019-03-24T08:07:15.967Z,87.70
2019-03-24T08:09:42.077Z,73.02
2019-03-24T08:12:08.144Z,62.03
2019-03-24T08:14:34.220Z,59.23
2019-03-24T08:17:00.312Z,60.63
2019-03-24T08:19:26.377Z,78.65
2019-03-24T08:21:52.463Z,56.23
2019-03-24T08:24:18.577Z,70.10
2019-03-24T08:26:44.648Z,67.27
2019-03-24T08:29:10.727Z,55.98
2019-03-24T08:31:36.804Z,70.10
2019-03-24T08:34:02.994Z,62.93
2019-03-24T08:36:29.061Z,61.60
2019-03-24T08:38:55.228Z,64.20
2019-03-24T08:41:21.394Z,63.98
2019-03-24T08:43:47.563Z,60.83
2019-03-24T08:46:13.679Z,61.77
2019-03-24T08:48:41.123Z,69.10
2019-03-24T08:51:07.586Z,59.50
2019-03-24T08:53:33.800Z,57.70
2019-03-24T08:55:59.984Z,70.17
2019-03-24T08:58:26.076Z,65.03
2019-03-24T09:00:52.148Z,73.37
2019-03-24T09:03:18.237Z,67.80
2019-03-24T09:05:44.329Z,68.42
2019-03-24T09:08:10.401Z,65.57
2019-03-24T09:10:36.607Z,97.25
2019-03-24T09:13:02.864Z,65.22
2019-03-24T09:15:29.900Z,72.55
2019-03-24T09:17:55.992Z,83.22
2019-03-24T09:20:22.097Z,58.68
2019-03-24T09:22:48.153Z,64.70
2019-03-24T09:25:14.248Z,57.60
2019-03-24T09:27:40.311Z,61.77
2019-03-24T09:30:13.200Z,69.22
2019-03-24T09:32:39.268Z,65.75
2019-03-24T09:35:05.441Z,80.00
2019-03-24T09:37:31.675Z,66.20
2019-03-24T09:39:57.736Z,58.45
2019-03-24T09:42:23.816Z,66.33
2019-03-24T09:44:49.879Z,62.35
2019-03-24T09:47:16.048Z,61.92
2019-03-24T09:49:42.196Z,56.53
2019-03-24T09:52:08.265Z,54.73
2019-03-24T09:54:34.344Z,54.00
2019-03-24T09:57:00.459Z,60.80
2019-03-24T09:59:27.537Z,54.43
2019-03-24T10:01:53.620Z,55.53
2019-03-24T10:04:19.700Z,58.73
2019-03-24T10:06:45.763Z,56.40
2019-03-24T10:09:11.863Z,60.00
2019-03-24T10:11:37.925Z,61.50
2019-03-24T10:14:04.057Z,56.13
2019-03-24T10:16:30.180Z,62.13
2019-03-24T10:18:56.243Z,57.27
2019-03-24T10:21:22.336Z,59.40
2019-03-24T10:23:48.412Z,61.00
2019-03-24T10:26:14.490Z,55.00
2019-03-24T10:28:40.573Z,58.33
2019-03-24T10:31:06.648Z,61.13
2019-03-24T10:33:32.715Z,57.50
2019-03-24T10:35:58.816Z,57.80
2019-03-24T10:38:24.952Z,65.70
2019-03-24T10:40:51.162Z,52.60
2019-03-24T10:43:17.227Z,56.70
2019-03-24T10:45:43.300Z,59.60
2019-03-24T10:48:09.370Z,58.43
2019-03-24T10:50:35.486Z,56.30
2019-03-24T10:53:01.761Z,65.67
2019-03-24T10:55:27.831Z,62.43
2019-03-24T10:57:54.067Z,55.43
2019-03-24T11:00:35.162Z,54.33
2019-03-24T11:03:01.284Z,61.80
2019-03-24T11:05:27.404Z,62.20
2019-03-24T11:07:53.569Z,58.10
2019-03-24T11:10:19.699Z,65.43
2019-03-24T11:12:45.776Z,61.67
2019-03-24T11:15:12.068Z,64.40
2019-03-24T11:17:38.249Z,58.67
2019-03-24T11:20:05.710Z,63.63
2019-03-24T11:22:35.139Z,64.30
2019-03-24T11:25:01.219Z,59.40
2019-03-24T11:27:27.303Z,65.50
2019-03-24T11:29:53.475Z,59.03
2019-03-24T11:32:19.544Z,59.80
2019-03-24T11:34:45.610Z,60.97
2019-03-24T11:37:11.680Z,61.83
2019-03-24T11:39:37.752Z,68.50
2019-03-24T11:42:03.840Z,61.40
2019-03-24T11:44:29.904Z,63.40
2019-03-24T11:46:55.968Z,63.03
2019-03-24T11:49:22.048Z,60.50
2019-03-24T11:51:48.278Z,61.47
2019-03-24T11:54:14.510Z,61.40
2019-03-24T11:56:40.633Z,55.83
2019-03-24T11:59:06.786Z,53.90
2019-03-24T12:01:38.157Z,56.97
2019-03-24T12:04:00.906Z,64.13
2019-03-24T12:06:27.021Z,59.63
2019-03-24T12:08:53.115Z,54.90
2019-03-24T12:11:19.238Z,55.63
2019-03-24T12:13:45.312Z,54.20
2019-03-24T12:16:11.717Z,59.20
2019-03-24T12:18:37.865Z,52.57
2019-03-24T12:21:03.923Z,53.60
2019-03-24T12:23:30.014Z,61.23
2019-03-24T12:25:56.108Z,56.50
2019-03-24T12:28:22.304Z,54.70
2019-03-24T12:30:48.396Z,53.43
2019-03-24T12:33:14.489Z,49.63
2019-03-24T12:35:40.539Z,57.50
2019-03-24T12:38:06.714Z,54.67
2019-03-24T12:40:32.803Z,51.83
2019-03-24T12:42:58.968Z,52.57
2019-03-24T12:45:25.040Z,47.33
2019-03-24T12:47:51.121Z,53.57
2019-03-24T12:50:17.197Z,53.30
2019-03-24T12:52:43.284Z,52.40
2019-03-24T12:55:09.468Z,52.80
2019-03-24T12:57:35.673Z,49.00
2019-03-24T13:00:06.820Z,52.20
2019-03-24T13:02:32.877Z,51.67
2019-03-24T13:04:59.265Z,59.10
2019-03-24T13:07:25.435Z,49.57
2019-03-24T13:09:51.617Z,50.00
2019-03-24T13:12:17.707Z,49.77
2019-03-24T13:14:43.901Z,48.10
2019-03-24T13:17:10.014Z,54.10
2019-03-24T13:19:36.335Z,49.70
2019-03-24T13:22:02.592Z,49.10
2019-03-24T13:24:28.700Z,49.73
2019-03-24T13:26:54.852Z,48.40
2019-03-24T13:29:21.025Z,48.10
2019-03-24T13:31:48.308Z,42.33
2019-03-24T13:34:15.112Z,43.80
2019-03-24T13:36:41.270Z,45.03
2019-03-24T13:39:07.439Z,42.50
2019-03-24T13:41:33.520Z,46.67
2019-03-24T13:43:59.588Z,44.73
2019-03-24T13:46:25.667Z,48.13
2019-03-24T13:48:51.738Z,41.17
2019-03-24T13:51:17.816Z,44.03
2019-03-24T13:53:43.883Z,38.10
2019-03-24T13:56:10.057Z,42.87
2019-03-24T13:58:36.127Z,40.70
2019-03-24T14:01:03.509Z,39.00
2019-03-24T14:03:29.693Z,45.10
2019-03-24T14:05:55.847Z,44.80
2019-03-24T14:08:22.036Z,44.37
2019-03-24T14:10:48.118Z,43.07
2019-03-24T14:13:14.271Z,41.93
2019-03-24T14:15:40.349Z,39.00
2019-03-24T14:18:06.401Z,36.90
2019-03-24T14:20:42.667Z,39.73
2019-03-24T14:23:00.478Z,41.60
2019-03-24T14:25:26.549Z,43.10
2019-03-24T14:27:52.689Z,42.00
2019-03-24T14:30:22.657Z,40.23
2019-03-24T14:32:48.752Z,40.87
2019-03-24T14:35:14.842Z,38.40
2019-03-24T14:37:41.017Z,42.07
2019-03-24T14:40:07.441Z,39.37
2019-03-24T14:42:33.530Z,35.33
2019-03-24T14:44:59.612Z,38.70
2019-03-24T14:47:25.800Z,42.30
2019-03-24T14:49:51.861Z,38.27
2019-03-24T14:52:17.932Z,44.07
2019-03-24T14:54:44.004Z,42.53
2019-03-24T14:57:10.110Z,39.47
2019-03-24T14:59:36.288Z,41.70
2019-03-24T15:02:02.410Z,40.30
2019-03-24T15:04:28.519Z,39.70
2019-03-24T15:06:54.600Z,40.47
2019-03-24T15:09:20.692Z,39.80
2019-03-24T15:11:46.746Z,39.73
2019-03-24T15:14:12.840Z,38.50
2019-03-24T15:16:39.003Z,41.23
2019-03-24T15:19:05.059Z,36.77
2019-03-24T15:21:31.180Z,38.33
2019-03-24T15:23:57.235Z,35.07
2019-03-24T15:26:23.322Z,33.20
2019-03-24T15:28:49.411Z,39.13
2019-03-24T15:31:15.503Z,34.33
2019-03-24T15:33:41.780Z,38.43
2019-03-24T15:36:07.965Z,37.07
2019-03-24T15:38:34.131Z,37.17
2019-03-24T15:41:00.337Z,34.57
2019-03-24T15:43:26.509Z,35.20
2019-03-24T15:45:52.623Z,37.73
2019-03-24T15:48:18.687Z,43.77
2019-03-24T15:50:44.780Z,37.23
2019-03-24T15:53:10.890Z,41.13
2019-03-24T15:55:37.148Z,38.83
2019-03-24T15:58:03.221Z,40.13
2019-03-24T16:00:40.841Z,39.37
2019-03-24T16:03:07.015Z,40.47
2019-03-24T16:05:33.104Z,55.40
2019-03-24T16:07:59.232Z,41.33
2019-03-24T16:10:34.859Z,43.30
2019-03-24T16:12:53.281Z,44.50
2019-03-24T16:15:19.362Z,45.83
2019-03-24T16:17:45.438Z,40.80
2019-03-24T16:20:11.634Z,50.83
2019-03-24T16:22:37.695Z,44.07
2019-03-24T16:25:05.777Z,44.27
2019-03-24T16:27:31.893Z,44.53
2019-03-24T16:29:58.060Z,48.77
2019-03-24T16:32:24.266Z,46.90
2019-03-24T16:34:50.339Z,48.37
2019-03-24T16:37:16.410Z,51.47
2019-03-24T16:39:42.516Z,47.60
2019-03-24T16:42:08.593Z,47.20
2019-03-24T16:44:34.798Z,42.10
2019-03-24T16:47:00.885Z,41.30
2019-03-24T16:49:26.972Z,42.00
2019-03-24T16:51:53.040Z,45.40
2019-03-24T16:54:19.136Z,50.33
2019-03-24T16:56:45.308Z,49.60
2019-03-24T16:59:15.299Z,50.77
2019-03-24T17:01:51.037Z,45.43
2019-03-24T17:04:23.851Z,46.00
2019-03-24T17:06:50.465Z,40.77
2019-03-24T17:09:16.568Z,40.57
2019-03-24T17:11:42.654Z,45.30
2019-03-24T17:14:08.824Z,45.00
2019-03-24T17:16:35.091Z,41.80
2019-03-24T17:19:01.198Z,45.70
2019-03-24T17:21:27.491Z,46.40
2019-03-24T17:23:53.734Z,46.00
2019-03-24T17:26:19.815Z,39.03
2019-03-24T17:28:47.039Z,43.03
2019-03-24T17:31:13.398Z,45.30
2019-03-24T17:33:39.586Z,48.57
2019-03-24T17:36:05.847Z,45.37
2019-03-24T17:38:32.080Z,46.77
2019-03-24T17:40:58.143Z,51.70
2019-03-24T17:43:24.224Z,48.30
2019-03-24T17:45:50.309Z,52.23
2019-03-24T17:48:16.492Z,53.60
2019-03-24T17:50:42.596Z,55.33
2019-03-24T17:53:08.672Z,53.10
2019-03-24T17:55:34.727Z,58.10
2019-03-24T17:58:00.851Z,50.53
2019-03-24T18:00:39.198Z,50.80
2019-03-24T18:03:05.492Z,51.40
2019-03-24T18:05:31.605Z,53.63
2019-03-24T18:07:57.823Z,52.60
2019-03-24T18:10:24.056Z,54.73
2019-03-24T18:12:50.356Z,47.80
2019-03-24T18:15:16.521Z,49.47
2019-03-24T18:17:42.652Z,49.23
2019-03-24T18:20:09.528Z,52.60
2019-03-24T18:22:35.745Z,50.43
2019-03-24T18:25:03.287Z,46.17
2019-03-24T18:27:29.374Z,50.60
2019-03-24T18:29:55.436Z,43.43
2019-03-24T18:32:23.050Z,47.77
2019-03-24T18:34:49.427Z,47.13
2019-03-24T18:37:15.519Z,43.20
2019-03-24T18:39:41.621Z,46.73
2019-03-24T18:42:07.798Z,45.20
2019-03-24T18:44:34.005Z,49.40
2019-03-24T18:47:00.096Z,50.60
2019-03-24T18:49:26.320Z,52.40
2019-03-24T18:51:52.745Z,51.13
2019-03-24T18:54:18.843Z,52.50
2019-03-24T18:56:45.012Z,57.13
2019-03-24T18:59:11.106Z,52.77
2019-03-24T19:01:37.191Z,56.20
2019-03-24T19:04:03.432Z,56.90
2019-03-24T19:06:29.558Z,61.57
2019-03-24T19:08:55.799Z,54.20
2019-03-24T19:11:22.073Z,59.80
2019-03-24T19:13:48.132Z,59.57
2019-03-24T19:16:14.241Z,62.30
2019-03-24T19:18:40.321Z,63.20
2019-03-24T19:21:06.396Z,64.77
2019-03-24T19:23:32.458Z,59.77
2019-03-24T19:25:58.943Z,68.40
2019-03-24T19:28:25.099Z,57.43
2019-03-24T19:30:51.608Z,61.23
2019-03-24T19:33:18.597Z,63.70
2019-03-24T19:35:44.663Z,59.87
2019-03-24T19:38:10.945Z,60.80
2019-03-24T19:40:37.092Z,59.90
2019-03-24T19:43:03.375Z,66.20
2019-03-24T19:45:29.445Z,59.97
2019-03-24T19:47:55.978Z,61.43
2019-03-24T19:50:22.447Z,63.50
2019-03-24T19:52:48.640Z,67.13
2019-03-24T19:55:14.839Z,66.00
2019-03-24T19:57:40.972Z,59.97
2019-03-24T20:00:08.023Z,65.03
2019-03-24T20:02:34.098Z,60.67
2019-03-24T20:05:00.362Z,64.03
2019-03-24T20:07:26.628Z,62.97
2019-03-24T20:09:52.709Z,65.83
2019-03-24T20:12:18.909Z,62.07
2019-03-24T20:14:44.996Z,59.80
2019-03-24T20:17:11.089Z,62.00
2019-03-24T20:19:37.239Z,65.07
2019-03-24T20:22:03.336Z,59.83
2019-03-24T20:24:29.506Z,61.90
2019-03-24T20:26:55.672Z,67.50
2019-03-24T20:29:21.882Z,65.70
2019-03-24T20:31:48.199Z,64.47
2019-03-24T20:34:14.300Z,64.57
2019-03-24T20:36:40.440Z,64.00
2019-03-24T20:39:07.628Z,64.47
2019-03-24T20:41:33.696Z,68.27
2019-03-24T20:43:59.808Z,65.23
2019-03-24T20:46:25.974Z,70.27
2019-03-24T20:48:52.101Z,64.60
2019-03-24T20:51:18.192Z,68.10
2019-03-24T20:53:44.539Z,68.50
2019-03-24T20:56:10.905Z,70.95
2019-03-24T20:58:37.431Z,74.50
2019-03-24T21:01:03.880Z,74.70
2019-03-24T21:03:30.331Z,74.62
2019-03-24T21:05:56.796Z,68.57
2019-03-24T21:08:23.237Z,73.45
2019-03-24T21:10:49.692Z,66.60
2019-03-24T21:13:16.142Z,75.75
2019-03-24T21:15:42.624Z,78.28
2019-03-24T21:18:09.072Z,75.00
2019-03-24T21:20:35.497Z,67.70
2019-03-24T21:23:01.976Z,73.45
2019-03-24T21:25:28.411Z,79.22
2019-03-24T21:27:54.845Z,73.25
2019-03-24T21:30:31.247Z,68.17
2019-03-24T21:32:57.822Z,79.97
2019-03-24T21:35:24.361Z,65.32
2019-03-24T21:37:50.800Z,70.32
2019-03-24T21:40:17.307Z,77.97
2019-03-24T21:42:43.783Z,77.80
2019-03-24T21:45:10.533Z,77.65
2019-03-24T21:47:36.987Z,76.62
2019-03-24T21:50:05.052Z,76.42
2019-03-24T21:52:31.477Z,73.12
2019-03-24T21:54:57.903Z,74.90
2019-03-24T21:57:24.359Z,82.08
2019-03-24T21:59:50.875Z,76.80
2019-03-24T22:02:17.716Z,73.15
2019-03-24T22:04:44.284Z,82.17
2019-03-24T22:07:10.731Z,80.28
2019-03-24T22:09:37.204Z,80.55
2019-03-24T22:12:03.667Z,82.35
2019-03-24T22:14:30.104Z,77.35
2019-03-24T22:16:56.567Z,78.40
2019-03-24T22:19:23.319Z,80.60
2019-03-24T22:21:49.798Z,83.05
2019-03-24T22:24:16.286Z,80.20
2019-03-24T22:26:42.828Z,90.38
2019-03-24T22:29:09.256Z,82.60
2019-03-24T22:31:35.745Z,82.45
2019-03-24T22:34:02.689Z,87.95
2019-03-24T22:36:29.126Z,85.97
2019-03-24T22:38:55.570Z,82.15
2019-03-24T22:41:22.026Z,83.03
2019-03-24T22:43:48.509Z,85.70
2019-03-24T22:46:15.000Z,84.07
2019-03-24T22:48:41.445Z,89.37
2019-03-24T22:51:07.884Z,83.58
2019-03-24T22:53:34.347Z,82.33
2019-03-24T22:56:00.810Z,84.22
2019-03-24T22:58:27.267Z,90.95
2019-03-24T23:00:54.496Z,83.67
2019-03-24T23:03:20.945Z,85.57
2019-03-24T23:05:47.439Z,78.35
2019-03-24T23:08:13.981Z,88.40
2019-03-24T23:10:40.403Z,89.55
2019-03-24T23:13:06.851Z,83.20
2019-03-24T23:15:33.279Z,84.10
2019-03-24T23:17:59.724Z,91.40
2019-03-24T23:20:26.156Z,90.85
2019-03-24T23:22:52.832Z,95.10
2019-03-24T23:25:19.275Z,80.47
2019-03-24T23:27:45.729Z,83.37
2019-03-24T23:30:12.295Z,92.37
2019-03-24T23:32:38.751Z,87.25
2019-03-24T23:35:05.577Z,75.90
2019-03-24T23:37:32.038Z,86.57
2019-03-24T23:39:58.475Z,83.60
2019-03-24T23:42:24.912Z,81.65
2019-03-24T23:44:51.481Z,84.95
2019-03-24T23:47:17.911Z,90.62
2019-03-24T23:49:44.454Z,85.40
2019-03-24T23:52:10.900Z,87.08
2019-03-24T23:54:37.363Z,85.00
2019-03-24T23:57:03.880Z,86.75
2019-03-24T23:59:30.356Z,96.35
